| time (UTC) | temp F | wind direction | speed MPH | gust MPH | rain 1hr in | rain 24hr in | rain mn in | humidity % | barometer mb |
| 20260504050516 | 55 | 217 | 1.0 | 2.0 | 0.00 | 0.05 | 0.00 | 68 | 1000.4 |
| 20260504045531 | 55 | 228 | 1.0 | 2.0 | 0.00 | 0.05 | 0.00 | 67 | 1000.3 |
| 20260504044527 | 56 | 199 | 1.0 | 1.0 | 0.00 | 0.05 | 0.00 | 67 | 1000.3 |
| 20260504043523 | 56 | 259 | 0.0 | 2.0 | 0.00 | 0.05 | 0.00 | 66 | 1000.2 |
| 20260504042518 | 57 | 226 | 1.0 | 4.0 | 0.00 | 0.05 | 0.00 | 66 | 1000.2 |
| 20260504041534 | 57 | 238 | 1.0 | 2.0 | 0.00 | 0.05 | 0.00 | 66 | 1000.1 |
| 20260504040530 | 56 | 251 | 2.0 | 6.0 | 0.00 | 0.05 | 0.00 | 66 | 1000.2 |
| 20260504035525 | 56 | 225 | 1.0 | 2.0 | 0.00 | 0.05 | 0.00 | 66 | 999.9 |
| 20260504034521 | 56 | 186 | 0.0 | 3.0 | 0.00 | 0.05 | 0.00 | 66 | 1000.0 |
| 20260504033517 | 56 | 201 | 1.0 | 2.0 | 0.00 | 0.05 | 0.00 | 66 | 1000.1 |
| 20260504032533 | 56 | 169 | 0.0 | 1.0 | 0.00 | 0.05 | 0.00 | 65 | 1000.3 |
| 20260504031528 | 57 | 201 | 0.0 | 1.0 | 0.00 | 0.05 | 0.00 | 65 | 1000.5 |
| 20260504030523 | 57 | 276 | 0.0 | 1.0 | 0.00 | 0.05 | 0.00 | 64 | 1000.4 |
| 20260504025519 | 57 | 181 | 0.0 | 2.0 | 0.00 | 0.05 | 0.00 | 64 | 1000.3 |
| 20260504024535 | 57 | 191 | 0.0 | 3.0 | 0.00 | 0.05 | 0.00 | 63 | 1000.4 |
| 20260504023531 | 58 | 222 | 0.0 | 1.0 | 0.00 | 0.05 | 0.00 | 62 | 1000.3 |
| 20260504022526 | 58 | 252 | 0.0 | 1.0 | 0.00 | 0.05 | 0.00 | 61 | 1000.4 |
| 20260504021522 | 59 | 0.0 | 0.0 | 0.00 | 0.05 | 0.00 | 61 | 1000.4 | |
| 20260504020518 | 60 | 251 | 1.0 | 2.0 | 0.00 | 0.05 | 0.00 | 59 | 1000.1 |
| 20260504015533 | 61 | 214 | 1.0 | 6.0 | 0.00 | 0.05 | 0.00 | 59 | 1000.0 |
| 20260504014529 | 61 | 212 | 1.0 | 2.0 | 0.00 | 0.05 | 0.00 | 58 | 999.9 |
| 20260504013525 | 62 | 217 | 1.0 | 4.0 | 0.00 | 0.05 | 0.00 | 57 | 999.8 |
| 20260504012521 | 62 | 231 | 1.0 | 3.0 | 0.00 | 0.05 | 0.00 | 56 | 999.9 |
| 20260504011537 | 63 | 252 | 2.0 | 4.0 | 0.00 | 0.05 | 0.00 | 56 | 999.6 |
| 20260504010533 | 63 | 245 | 1.0 | 3.0 | 0.00 | 0.05 | 0.00 | 55 | 999.6 |
| 20260504005529 | 64 | 246 | 1.0 | 3.0 | 0.00 | 0.05 | 0.00 | 54 | 999.6 |
| 20260504004524 | 65 | 232 | 1.0 | 3.0 | 0.00 | 0.05 | 0.00 | 53 | 999.7 |
| 20260504003519 | 66 | 225 | 1.0 | 3.0 | 0.00 | 0.05 | 0.00 | 53 | 999.7 |
| 20260504002515 | 66 | 255 | 2.0 | 6.0 | 0.00 | 0.05 | 0.00 | 52 | 999.8 |
| 20260504001551 | 67 | 219 | 2.0 | 7.0 | 0.00 | 0.05 | 0.00 | 52 | 999.7 |
| 20260504000527 | 68 | 262 | 3.0 | 7.0 | 0.00 | 0.05 | 0.00 | 51 | 999.7 |
| 20260503235522 | 68 | 258 | 2.0 | 10.0 | 0.00 | 0.05 | 0.05 | 51 | 999.8 |
| 20260503234558 | 68 | 249 | 3.0 | 9.0 | 0.00 | 0.05 | 0.05 | 51 | 999.7 |
| 20260503233553 | 68 | 254 | 6.0 | 16.0 | 0.00 | 0.05 | 0.05 | 50 | 999.6 |
| 20260503232530 | 69 | 247 | 3.0 | 9.0 | 0.00 | 0.05 | 0.05 | 50 | 999.9 |
| 20260503231526 | 69 | 274 | 5.0 | 13.0 | 0.00 | 0.05 | 0.05 | 49 | 999.9 |
| 20260503230522 | 69 | 259 | 5.0 | 14.0 | 0.00 | 0.05 | 0.05 | 50 | 999.9 |
| 20260503225517 | 69 | 256 | 7.0 | 15.0 | 0.00 | 0.05 | 0.05 | 50 | 1000.0 |
| 20260503224533 | 69 | 267 | 6.0 | 19.0 | 0.00 | 0.05 | 0.05 | 50 | 1000.0 |
| 20260503223528 | 69 | 256 | 5.0 | 16.0 | 0.00 | 0.05 | 0.05 | 51 | 1000.0 |
| 20260503222523 | 69 | 254 | 6.0 | 14.0 | 0.00 | 0.05 | 0.05 | 51 | 1000.1 |
| 20260503221519 | 68 | 272 | 3.0 | 8.0 | 0.00 | 0.05 | 0.05 | 52 | 1000.2 |
| 20260503220615 | 69 | 205 | 3.0 | 9.0 | 0.00 | 0.05 | 0.05 | 51 | 1000.2 |
| 20260503215551 | 69 | 220 | 4.0 | 11.0 | 0.00 | 0.05 | 0.05 | 51 | 1000.2 |
| 20260503214547 | 68 | 255 | 4.0 | 11.0 | 0.00 | 0.05 | 0.05 | 53 | 1000.3 |
| 20260503213522 | 68 | 265 | 4.0 | 10.0 | 0.00 | 0.05 | 0.05 | 52 | 1000.4 |
| 20260503212518 | 68 | 227 | 4.0 | 17.0 | 0.00 | 0.05 | 0.05 | 52 | 1000.5 |
| 20260503211535 | 68 | 223 | 4.0 | 18.0 | 0.00 | 0.05 | 0.05 | 53 | 1000.9 |
| 20260503210530 | 67 | 255 | 5.0 | 9.0 | 0.00 | 0.05 | 0.05 | 54 | 1001.1 |
| 20260503205526 | 67 | 223 | 4.0 | 11.0 | 0.00 | 0.05 | 0.05 | 54 | 1001.2 |
| 20260503204542 | 66 | 236 | 5.0 | 18.0 | 0.00 | 0.05 | 0.05 | 54 | 1001.6 |
| 20260503203516 | 65 | 218 | 4.0 | 11.0 | 0.00 | 0.05 | 0.05 | 55 | 1001.9 |
| 20260503202532 | 65 | 199 | 5.0 | 15.0 | 0.00 | 0.05 | 0.05 | 55 | 1002.1 |
| 20260503201529 | 66 | 230 | 8.0 | 23.0 | 0.00 | 0.05 | 0.05 | 55 | 1002.4 |
| 20260503200544 | 66 | 208 | 6.0 | 13.0 | 0.00 | 0.05 | 0.05 | 58 | 1002.3 |
| 20260503195520 | 65 | 227 | 5.0 | 13.0 | 0.00 | 0.05 | 0.05 | 58 | 1002.5 |
| 20260503194516 | 66 | 218 | 6.0 | 15.0 | 0.00 | 0.05 | 0.05 | 59 | 1002.7 |
| 20260503193532 | 65 | 210 | 6.0 | 18.0 | 0.00 | 0.05 | 0.05 | 62 | 1002.5 |
| 20260503192527 | 64 | 185 | 7.0 | 21.0 | 0.00 | 0.05 | 0.05 | 63 | 1002.8 |
| 20260503191523 | 63 | 225 | 5.0 | 15.0 | 0.00 | 0.05 | 0.05 | 66 | 1003.2 |
| 20260503190519 | 63 | 192 | 6.0 | 16.0 | 0.00 | 0.05 | 0.05 | 67 | 1003.1 |
| 20260503185535 | 62 | 200 | 5.0 | 10.0 | 0.00 | 0.05 | 0.05 | 69 | 1003.2 |
| 20260503184530 | 61 | 190 | 5.0 | 15.0 | 0.00 | 0.05 | 0.05 | 70 | 1003.4 |
| 20260503183525 | 60 | 189 | 5.0 | 21.0 | 0.00 | 0.05 | 0.05 | 71 | 1003.6 |
| 20260503182521 | 59 | 162 | 6.0 | 21.0 | 0.00 | 0.05 | 0.05 | 73 | 1003.9 |
| 20260503181518 | 58 | 173 | 6.0 | 17.0 | 0.00 | 0.05 | 0.05 | 74 | 1004.1 |
| 20260503180534 | 56 | 146 | 4.0 | 9.0 | 0.00 | 0.05 | 0.05 | 75 | 1004.5 |
| 20260503175550 | 56 | 191 | 6.0 | 22.0 | 0.00 | 0.05 | 0.05 | 77 | 1004.8 |
| 20260503174526 | 53 | 181 | 4.0 | 18.0 | 0.01 | 0.05 | 0.05 | 78 | 1005.0 |
| 20260503173522 | 52 | 141 | 3.0 | 11.0 | 0.01 | 0.05 | 0.05 | 79 | 1005.1 |
| 20260503172518 | 50 | 205 | 4.0 | 15.0 | 0.02 | 0.05 | 0.05 | 79 | 1005.8 |
| 20260503171534 | 50 | 185 | 3.0 | 9.0 | 0.02 | 0.05 | 0.05 | 79 | 1005.9 |
| 20260503170529 | 49 | 173 | 3.0 | 10.0 | 0.02 | 0.05 | 0.05 | 78 | 1006.5 |
| 20260503150517 | 53 | 247 | 6.0 | 15.0 | 0.00 | 0.00 | 0.00 | 68 | 1008.6 |
| 20260503130526 | 48 | 248 | 2.0 | 7.0 | 0.00 | 0.00 | 0.00 | 69 | 1008.9 |
| 20260503110516 | 45 | 190 | 2.0 | 6.0 | 0.00 | 0.00 | 0.00 | 70 | 1008.5 |
| 20260503081526 | 43 | 241 | 0.0 | 2.0 | 0.00 | 0.00 | 0.00 | 70 | 1009.1 |
| 20260503080522 | 43 | 273 | 0.0 | 1.0 | 0.00 | 0.00 | 0.00 | 70 | 1009.3 |
| 20260503072525 | 42 | 0.0 | 0.0 | 0.00 | 0.00 | 0.00 | 70 | 1009.4 | |
| 20260503071520 | 42 | 0.0 | 0.0 | 0.00 | 0.00 | 0.00 | 70 | 1009.4 | |
| 20260503070535 | 42 | 0.0 | 0.0 | 0.00 | 0.00 | 0.00 | 70 | 1009.3 | |
| 20260503054521 | 43 | 0.0 | 0.0 | 0.00 | 0.00 | 0.00 | 68 | 1010.0 |